Terminal Aerodrome Forecast
Issued by NWS

Home | Current Version | Previous Version | Text Only | Print | Product List | Glossary Off
Versions: 1 2 3 4 5 6 7 8 9 10 11 12 13 14 15

809
FTUS43 KICT 052324
TAFHUT
TAF
KHUT 052324Z 0600/0624 17006KT P6SM SKC
     FM060600 35016G24KT P6SM SCT120
     FM061400 34012KT P6SM SCT250=

USA.gov is the U.S. government's official web portal to all federal, state and local government web resources and services.